Time;durP1;ratioP1;P1;durP2;ratioP2;P2;SDS_P1;SDS_P2;PMS_P1;PMS_P2;Temp;Humidity;BMP_temperature;BMP_pressure;BME280_temperature;BME280_humidity;BME280_pressure;Samples;Min_cycle;Max_cycle;Signal;HPM_P1;HPM_P2
2022/04/28 00:00:26;;;;;;;4.05;3.13;;;;;;;17.79;30.11;102334.44;5030241;28;20088;-73
2022/04/28 00:02:53;;;;;;;5.20;3.00;;;;;;;17.78;30.13;102330.84;5028228;28;20483;-72
2022/04/28 00:05:20;;;;;;;5.60;3.08;;;;;;;17.75;30.01;102331.06;5035529;28;20052;-73
2022/04/28 00:07:47;;;;;;;4.40;3.13;;;;;;;17.74;30.33;102340.28;5032647;28;20072;-73
2022/04/28 00:10:14;;;;;;;4.50;3.15;;;;;;;17.73;30.22;102332.16;5027954;28;20046;-72
2022/04/28 00:12:41;;;;;;;6.25;3.03;;;;;;;17.70;29.99;102336.03;5026476;28;20060;-72
2022/04/28 00:15:08;;;;;;;6.45;3.08;;;;;;;17.69;29.93;102334.25;5033968;28;20089;-72
2022/04/28 00:17:35;;;;;;;5.35;3.28;;;;;;;17.67;30.18;102338.09;5028039;28;20420;-73
2022/04/28 00:20:08;;;;;;;5.90;3.30;;;;;;;17.66;30.04;102330.84;5026845;28;20554;-72
2022/04/28 00:22:35;;;;;;;5.45;3.30;;;;;;;17.61;30.09;102331.16;5028310;28;20676;-72
2022/04/28 00:25:02;;;;;;;5.28;3.65;;;;;;;17.61;30.32;102330.28;5028425;28;20147;-73
2022/04/28 00:27:29;;;;;;;5.38;3.10;;;;;;;17.57;30.30;102321.38;5030010;28;20045;-72
2022/04/28 00:29:56;;;;;;;4.05;2.90;;;;;;;17.57;30.40;102320.50;5028580;28;20454;-73
2022/04/28 00:32:23;;;;;;;4.07;2.75;;;;;;;17.53;30.70;102321.72;5026529;28;20118;-72
2022/04/28 00:34:49;;;;;;;5.32;3.40;;;;;;;17.50;30.42;102323.69;5032042;28;20179;-72
2022/04/28 00:37:17;;;;;;;5.78;3.58;;;;;;;17.48;30.31;102328.41;5032556;28;20435;-72
2022/04/28 00:39:44;;;;;;;5.50;3.40;;;;;;;17.47;30.32;102326.66;5028072;28;20510;-73
2022/04/28 00:42:13;;;;;;;6.28;3.53;;;;;;;17.45;30.38;102320.41;5032888;28;20140;-72
2022/04/28 00:44:41;;;;;;;6.10;3.20;;;;;;;17.43;30.21;102324.25;5032110;28;20049;-72
2022/04/28 00:47:09;;;;;;;5.75;3.35;;;;;;;17.42;30.32;102330.72;5026937;28;20124;-72
2022/04/28 00:52:22;;;;;;;5.18;3.40;;;;;;;17.35;30.53;102330.31;5031192;28;20056;-72
2022/04/28 00:54:51;;;;;;;5.55;3.47;;;;;;;17.37;30.60;102324.69;5028338;28;20054;-72
2022/04/28 00:57:19;;;;;;;5.63;3.63;;;;;;;17.35;30.54;102340.41;5026068;28;20616;-72
2022/04/28 00:59:47;;;;;;;4.95;3.33;;;;;;;17.33;30.41;102336.88;5025989;28;20053;-73
2022/04/28 01:02:13;;;;;;;6.18;3.90;;;;;;;17.30;30.87;102337.97;5023616;28;20706;-72
2022/04/28 01:04:40;;;;;;;5.70;3.90;;;;;;;17.28;30.51;102329.00;5029123;28;20068;-73
2022/04/28 01:07:07;;;;;;;6.20;3.92;;;;;;;17.26;30.70;102330.06;5035431;28;20122;-72
2022/04/28 01:09:36;;;;;;;6.07;3.50;;;;;;;17.24;30.72;102330.19;5025676;28;20115;-72
2022/04/28 01:12:14;;;;;;;5.18;3.75;;;;;;;17.24;30.70;102327.44;5027174;28;20057;-72
2022/04/28 01:14:45;;;;;;;7.53;3.80;;;;;;;17.22;30.87;102334.00;5034065;28;20060;-72
2022/04/28 01:17:13;;;;;;;7.47;3.53;;;;;;;17.16;30.42;102332.59;5025968;28;20046;-72
2022/04/28 01:19:39;;;;;;;5.32;3.38;;;;;;;17.16;30.87;102337.19;5059133;28;20076;-73
2022/04/28 01:22:07;;;;;;;5.22;3.63;;;;;;;17.14;30.55;102337.31;5024483;28;20136;-72
2022/04/28 01:24:36;;;;;;;6.45;3.88;;;;;;;17.13;30.68;102342.94;5026053;28;20132;-72
2022/04/28 01:27:05;;;;;;;6.95;4.03;;;;;;;17.11;30.96;102343.03;5024016;28;20042;-72
2022/04/28 01:29:33;;;;;;;6.13;3.80;;;;;;;17.09;31.04;102343.13;5033867;28;20092;-72
2022/04/28 01:32:00;;;;;;;5.90;3.97;;;;;;;17.07;30.87;102338.72;5028343;28;20049;-72
2022/04/28 01:34:27;;;;;;;6.07;4.20;;;;;;;17.03;31.14;102345.44;5032649;28;20056;-72
2022/04/28 01:36:54;;;;;;;5.38;3.90;;;;;;;17.02;31.11;102346.41;5032319;28;20045;-72
2022/04/28 01:39:21;;;;;;;6.28;4.00;;;;;;;16.99;31.04;102347.50;5025878;28;20077;-72
2022/04/28 01:41:49;;;;;;;6.40;4.47;;;;;;;16.98;30.89;102345.75;5027597;28;20802;-72
2022/04/28 01:44:16;;;;;;;7.55;4.40;;;;;;;16.95;31.17;102345.97;5034698;28;20077;-72
2022/04/28 01:46:43;;;;;;;6.78;4.00;;;;;;;16.92;31.30;102346.19;5028330;28;20721;-72
2022/04/28 01:49:09;;;;;;;7.20;4.40;;;;;;;16.91;31.19;102349.03;5027762;28;20052;-73
2022/04/28 01:57:06;;;;;;;6.50;4.18;;;;;;;16.82;31.10;102346.91;5031192;28;20046;-72
2022/04/28 01:59:32;;;;;;;6.88;4.47;;;;;;;16.81;31.23;102348.78;5031107;28;20562;-72
2022/04/28 02:01:59;;;;;;;5.80;4.38;;;;;;;16.79;31.43;102337.06;5028577;28;20124;-73
2022/04/28 02:04:26;;;;;;;6.47;4.50;;;;;;;16.77;31.21;102339.03;5031013;28;20056;-72
2022/04/28 02:06:52;;;;;;;6.68;4.15;;;;;;;16.75;31.32;102346.47;5029028;28;20084;-72
2022/04/28 02:09:19;;;;;;;6.78;4.70;;;;;;;16.72;31.17;102347.56;5029363;28;20045;-72
2022/04/28 02:11:45;;;;;;;7.00;4.55;;;;;;;16.70;31.62;102359.63;5027771;28;20081;-72
2022/04/28 02:14:12;;;;;;;5.90;4.50;;;;;;;16.68;31.60;102354.25;5030535;28;20084;-72
2022/04/28 02:16:38;;;;;;;6.95;4.55;;;;;;;16.66;31.41;102356.22;5029003;28;20060;-73
2022/04/28 02:19:05;;;;;;;9.30;5.07;;;;;;;16.64;31.56;102346.31;5035189;28;20049;-72
2022/04/28 02:21:31;;;;;;;7.38;5.05;;;;;;;16.62;30.97;102351.94;5025528;28;20582;-72
2022/04/28 02:23:58;;;;;;;7.13;4.97;;;;;;;16.61;31.54;102355.66;5037850;28;20057;-72
2022/04/28 02:26:25;;;;;;;7.47;5.18;;;;;;;16.59;31.35;102357.59;5036527;28;20075;-72
2022/04/28 02:28:52;;;;;;;7.53;4.97;;;;;;;16.58;31.49;102352.19;5043619;28;20100;-72
2022/04/28 02:31:18;;;;;;;6.50;4.80;;;;;;;16.56;31.95;102357.78;5022647;28;20132;-72
2022/04/28 02:33:45;;;;;;;7.75;5.22;;;;;;;16.53;31.53;102358.00;5030394;28;20104;-72
2022/04/28 02:36:12;;;;;;;9.13;5.50;;;;;;;16.52;31.51;102352.63;5032253;28;20120;-72
2022/04/28 02:38:39;;;;;;;7.85;5.13;;;;;;;16.50;31.88;102354.59;5033038;28;20123;-72
2022/04/28 02:41:06;;;;;;;7.50;5.45;;;;;;;16.49;31.58;102358.31;5028125;28;20450;-72
2022/04/28 02:43:33;;;;;;;7.75;5.22;;;;;;;16.46;31.44;102348.44;5033469;28;20080;-72
2022/04/28 02:46:00;;;;;;;9.93;5.57;;;;;;;16.45;31.88;102351.28;5032842;28;20418;-72
2022/04/28 02:48:27;;;;;;;8.10;5.57;;;;;;;16.43;31.58;102350.50;5036038;28;20049;-72
2022/04/28 02:50:56;;;;;;;8.43;5.30;;;;;;;16.41;31.62;102344.25;5029470;28;20050;-72
2022/04/28 02:53:23;;;;;;;7.55;5.72;;;;;;;16.38;31.92;102342.59;5044366;28;20128;-72
2022/04/28 02:55:49;;;;;;;6.95;5.25;;;;;;;16.36;32.03;102350.03;5032285;28;20073;-72
2022/04/28 02:58:16;;;;;;;7.20;5.18;;;;;;;16.34;31.81;102352.88;5029850;28;20071;-73
2022/04/28 03:00:43;;;;;;;7.72;5.45;;;;;;;16.31;31.88;102353.06;5035795;28;20049;-72
2022/04/28 03:03:10;;;;;;;7.93;5.55;;;;;;;16.30;32.22;102354.09;5029787;28;20069;-73
2022/04/28 03:11:14;;;;;;;7.97;5.47;;;;;;;16.23;32.17;102354.56;5026316;28;20056;-72
2022/04/28 03:13:41;;;;;;;10.35;5.72;;;;;;;16.21;32.19;102345.59;5030040;28;20133;-73
2022/04/28 03:16:07;;;;;;;7.57;5.45;;;;;;;16.20;32.17;102346.56;5031331;28;20129;-73
2022/04/28 03:18:34;;;;;;;8.05;5.75;;;;;;;16.18;32.27;102351.28;5027370;28;20116;-72
2022/04/28 03:21:08;;;;;;;8.80;6.00;;;;;;;16.15;32.08;102352.34;5028217;28;20130;-72
2022/04/28 03:23:34;;;;;;;10.48;5.75;;;;;;;16.14;32.09;102353.31;5032621;28;20755;-72
2022/04/28 03:26:01;;;;;;;8.18;5.80;;;;;;;16.13;32.14;102359.81;5029790;28;20462;-72
2022/04/28 03:28:27;;;;;;;9.57;6.28;;;;;;;16.12;32.19;102348.94;5033182;28;20551;-72
2022/04/28 03:30:54;;;;;;;9.00;6.00;;;;;;;16.11;32.22;102355.41;5032526;28;20135;-72
2022/04/28 03:33:20;;;;;;;8.35;5.80;;;;;;;16.09;32.11;102355.50;5031767;28;20099;-73
2022/04/28 03:35:47;;;;;;;9.88;6.43;;;;;;;16.07;32.48;102362.94;5029025;28;20080;-72
2022/04/28 03:38:13;;;;;;;9.27;6.25;;;;;;;16.06;32.35;102360.31;5027164;28;20065;-72
2022/04/28 03:40:41;;;;;;;8.38;6.00;;;;;;;16.05;32.35;102359.44;5031875;28;20107;-73
2022/04/28 03:43:09;;;;;;;9.38;6.20;;;;;;;16.01;32.63;102366.09;5026331;28;20045;-72
2022/04/28 03:45:37;;;;;;;8.02;5.78;;;;;;;16.00;32.61;102361.59;5033831;28;20132;-73
2022/04/28 03:48:04;;;;;;;9.52;6.18;;;;;;;15.98;32.34;102363.53;5025383;28;20132;-72
2022/04/28 03:50:31;;;;;;;7.90;5.55;;;;;;;15.97;32.48;102375.50;5029707;28;20073;-72
2022/04/28 03:52:58;;;;;;;11.75;6.35;;;;;;;15.94;32.44;102370.22;5027252;28;20041;-72
2022/04/28 03:55:25;;;;;;;8.52;6.43;;;;;;;15.92;32.46;102367.56;5032864;28;20046;-75
2022/04/28 03:57:52;;;;;;;9.32;6.15;;;;;;;15.89;32.51;102373.25;5025319;28;20717;-75
2022/04/28 04:00:19;;;;;;;10.90;6.88;;;;;;;15.89;32.65;102381.47;5027592;28;20072;-75
2022/04/28 04:02:47;;;;;;;8.55;5.85;;;;;;;15.89;32.78;102380.59;5031826;28;20075;-75
2022/04/28 04:05:15;;;;;;;8.98;6.63;;;;;;;15.86;32.84;102376.19;5033556;28;20548;-75
2022/04/28 04:07:42;;;;;;;9.25;6.97;;;;;;;15.85;32.57;102374.44;5030525;28;20077;-75
2022/04/28 04:10:11;;;;;;;10.88;6.72;;;;;;;15.86;32.83;102378.03;5028001;28;20052;-75
2022/04/28 04:12:38;;;;;;;10.05;6.80;;;;;;;15.82;32.75;102373.72;5030130;28;20125;-75
2022/04/28 04:15:06;;;;;;;10.07;6.88;;;;;;;15.81;32.54;102374.75;5027524;28;20049;-72
2022/04/28 04:17:41;;;;;;;9.90;6.70;;;;;;;15.83;32.83;102375.50;5028590;28;20164;-71
2022/04/28 04:20:09;;;;;;;9.43;6.32;;;;;;;15.78;32.72;102375.81;5032040;28;20102;-71
2022/04/28 04:22:36;;;;;;;11.15;6.65;;;;;;;15.78;32.85;102378.53;5022936;28;20079;-72
2022/04/28 04:25:04;;;;;;;9.85;6.45;;;;;;;15.76;32.89;102380.50;5025985;28;20049;-72
2022/04/28 04:27:31;;;;;;;11.07;6.40;;;;;;;15.76;33.06;102379.63;5026926;28;20081;-72
2022/04/28 04:32:17;;;;;;;12.57;7.07;;;;;;;15.74;32.98;102379.72;5026552;28;20068;-72
2022/04/28 04:32:48;;;;;;;10.68;6.60;;;;;;;15.73;32.71;102383.41;5023229;28;20127;-72
2022/04/28 04:35:15;;;;;;;10.25;6.68;;;;;;;15.74;32.92;102385.19;5027143;28;20041;-72
2022/04/28 04:37:43;;;;;;;10.20;7.32;;;;;;;15.73;32.91;102383.41;5033693;28;20056;-71
2022/04/28 04:40:11;;;;;;;9.60;7.03;;;;;;;15.73;33.24;102386.16;5026390;28;20051;-71
2022/04/28 04:42:37;;;;;;;11.00;6.75;;;;;;;15.72;33.25;102384.44;5026756;28;20075;-72
2022/04/28 04:45:07;;;;;;;13.75;7.22;;;;;;;15.73;33.22;102388.03;5025529;28;20132;-72
2022/04/28 04:47:33;;;;;;;10.88;7.32;;;;;;;15.70;33.22;102393.72;5028621;28;20073;-73
2022/04/28 04:50:00;;;;;;;11.75;7.70;;;;;;;15.69;33.24;102395.56;5026242;28;20077;-72
2022/04/28 04:52:27;;;;;;;11.73;7.00;;;;;;;15.69;33.16;102391.94;5025974;28;20049;-72
2022/04/28 04:54:53;;;;;;;12.13;7.53;;;;;;;15.68;33.36;102402.00;5028299;28;20132;-72
2022/04/28 04:57:20;;;;;;;10.95;7.85;;;;;;;15.68;33.33;102402.00;5026644;28;21582;-72
2022/04/28 04:59:46;;;;;;;10.75;7.28;;;;;;;15.68;33.59;102410.22;5033079;28;20045;-71
2022/04/28 05:02:13;;;;;;;11.45;7.53;;;;;;;15.68;33.63;102415.69;5028584;28;20073;-72
2022/04/28 05:04:40;;;;;;;12.27;7.95;;;;;;;15.68;33.66;102414.81;5027083;28;20045;-72
2022/04/28 05:07:06;;;;;;;10.60;7.25;;;;;;;15.67;33.40;102413.94;5026278;28;20128;-71
2022/04/28 05:09:37;;;;;;;10.63;7.38;;;;;;;15.68;33.70;102412.09;5027286;28;20129;-71
2022/04/28 05:12:07;;;;;;;11.27;7.78;;;;;;;15.69;33.75;102425.69;5022476;28;20076;-72
2022/04/28 05:14:38;;;;;;;10.90;7.30;;;;;;;15.67;33.68;102418.53;5025727;28;20084;-71
2022/04/28 05:17:05;;;;;;;10.55;7.63;;;;;;;15.68;33.79;102417.56;5025335;28;20136;-70
2022/04/28 05:19:33;;;;;;;12.20;7.70;;;;;;;15.68;33.74;102425.78;5026176;28;20395;-70
2022/04/28 05:21:59;;;;;;;12.57;8.13;;;;;;;15.67;33.93;102421.28;5027527;28;20069;-70
2022/04/28 05:24:26;;;;;;;12.75;8.10;;;;;;;15.67;33.85;102422.16;5039588;28;20140;-70
2022/04/28 05:26:52;;;;;;;12.55;8.13;;;;;;;15.69;33.98;102422.06;5032919;28;20386;-71
2022/04/28 05:29:19;;;;;;;11.70;8.25;;;;;;;15.71;34.23;102429.22;5030877;28;20045;-71
2022/04/28 05:31:46;;;;;;;12.52;7.95;;;;;;;15.73;34.04;102429.97;5026402;28;20046;-71
2022/04/28 05:34:13;;;;;;;11.65;8.07;;;;;;;15.76;34.02;102427.03;5043579;28;20072;-71
2022/04/28 05:36:40;;;;;;;14.50;8.65;;;;;;;15.79;34.06;102432.34;5032368;28;20128;-71
2022/04/28 05:39:06;;;;;;;12.95;7.78;;;;;;;15.83;34.20;102435.75;5031606;28;20073;-71
2022/04/28 05:41:35;;;;;;;14.02;8.20;;;;;;;15.87;34.34;102432.72;5037698;28;20242;-71
2022/04/28 05:46:47;;;;;;;11.73;7.60;;;;;;;15.91;34.47;102428.81;5028469;28;20142;-71
2022/04/28 05:49:13;;;;;;;14.05;7.63;;;;;;;15.97;34.63;102430.28;5026816;28;20124;-71
2022/04/28 05:51:41;;;;;;;13.20;8.18;;;;;;;16.00;34.41;102435.56;5038572;28;20053;-71
2022/04/28 05:54:07;;;;;;;10.43;7.30;;;;;;;16.03;34.37;102438.09;5025395;28;20099;-71
2022/04/28 05:56:34;;;;;;;12.10;7.55;;;;;;;16.07;34.36;102439.66;5042238;28;20123;-71
2022/04/28 05:59:01;;;;;;;12.73;7.43;;;;;;;16.11;34.46;102440.34;5033745;28;20136;-71
2022/04/28 06:01:28;;;;;;;13.02;8.70;;;;;;;16.14;34.27;102445.63;5021713;28;20136;-72
2022/04/28 06:03:56;;;;;;;11.60;7.63;;;;;;;16.16;34.10;102444.53;5037109;28;20049;-72
2022/04/28 06:06:23;;;;;;;12.23;8.00;;;;;;;16.19;34.44;102452.56;5036383;28;20487;-72
2022/04/28 06:08:49;;;;;;;11.05;7.22;;;;;;;16.22;34.43;102455.13;5034627;28;20041;-72
2022/04/28 06:11:16;;;;;;;11.48;7.45;;;;;;;16.26;34.37;102456.66;5026551;28;20045;-72
2022/04/28 06:13:43;;;;;;;10.02;7.20;;;;;;;16.29;34.31;102461.97;5034206;28;20072;-72
2022/04/28 06:16:10;;;;;;;12.75;7.28;;;;;;;16.35;34.46;102466.16;5025779;28;20045;-72
2022/04/28 06:18:37;;;;;;;10.43;7.43;;;;;;;16.38;34.47;102465.97;5031822;28;20132;-72
2022/04/28 06:21:03;;;;;;;12.68;7.82;;;;;;;16.42;34.71;102463.88;5026637;28;20053;-72
2022/04/28 06:23:30;;;;;;;11.57;7.60;;;;;;;16.47;34.52;102464.47;5028687;28;20065;-73
2022/04/28 06:25:56;;;;;;;10.95;6.88;;;;;;;16.50;34.82;102465.13;5029671;28;20554;-72
2022/04/28 06:28:23;;;;;;;10.43;7.40;;;;;;;16.55;34.46;102464.84;5027055;28;20045;-72
2022/04/28 06:30:49;;;;;;;12.10;7.07;;;;;;;16.61;34.39;102473.56;5029706;28;20037;-73
2022/04/28 06:33:16;;;;;;;11.55;7.88;;;;;;;16.67;34.73;102469.53;5026094;28;20060;-72
2022/04/28 06:35:42;;;;;;;10.45;7.80;;;;;;;16.72;34.57;102470.09;5038032;28;20104;-72
2022/04/28 06:38:09;;;;;;;12.13;7.97;;;;;;;16.78;34.50;102466.97;5028529;28;20042;-72
2022/04/28 06:40:35;;;;;;;10.30;7.43;;;;;;;16.85;34.55;102465.56;5030505;28;20553;-73
2022/04/28 06:43:02;;;;;;;13.80;8.77;;;;;;;16.92;34.77;102469.63;5029134;28;20132;-73
2022/04/28 06:45:29;;;;;;;14.55;8.20;;;;;;;17.00;34.80;102470.00;5062099;28;20046;-73
2022/04/28 06:47:55;;;;;;;12.38;8.20;;;;;;;17.07;34.70;102474.06;5030433;28;20104;-72
2022/04/28 06:50:22;;;;;;;11.15;7.63;;;;;;;17.16;34.93;102475.31;5032768;28;20769;-72
2022/04/28 06:52:48;;;;;;;10.70;7.55;;;;;;;17.27;34.55;102477.31;5027462;28;20072;-72
2022/04/28 06:55:15;;;;;;;11.20;8.02;;;;;;;17.36;34.74;102477.56;5024987;28;20084;-70
2022/04/28 06:57:42;;;;;;;10.77;8.00;;;;;;;17.48;34.79;102484.06;5031475;28;20046;-71
2022/04/28 07:00:09;;;;;;;10.95;7.45;;;;;;;17.61;34.71;102475.84;5029996;28;20076;-71
2022/04/28 07:02:36;;;;;;;12.82;8.15;;;;;;;17.72;34.74;102481.47;5024385;28;20474;-71
2022/04/28 07:05:03;;;;;;;11.32;8.00;;;;;;;17.83;34.50;102490.72;5040000;28;20058;-76
2022/04/28 07:07:29;;;;;;;11.63;7.28;;;;;;;17.97;35.06;102491.59;5040226;28;20067;-71
2022/04/28 07:09:56;;;;;;;11.23;7.63;;;;;;;18.08;34.28;102491.69;5028539;28;20128;-72
2022/04/28 07:12:31;;;;;;;10.57;7.40;;;;;;;18.20;34.55;102499.94;5037119;28;20037;-72
2022/04/28 07:14:58;;;;;;;11.13;8.13;;;;;;;18.33;34.35;102499.94;5038199;28;20042;-72
2022/04/28 07:17:25;;;;;;;10.45;7.60;;;;;;;18.44;34.58;102500.03;5033150;28;20487;-69
2022/04/28 07:19:51;;;;;;;9.57;7.40;;;;;;;18.55;34.68;102497.34;5025628;28;20061;-72
2022/04/28 07:22:18;;;;;;;13.25;7.80;;;;;;;18.68;34.26;102504.72;5032626;28;20044;-72
2022/04/28 07:24:44;;;;;;;11.48;8.10;;;;;;;18.79;34.14;102504.78;5031879;28;20152;-72
2022/04/28 07:27:11;;;;;;;10.23;7.32;;;;;;;18.89;34.07;102503.97;5028098;28;20133;-70
2022/04/28 07:29:38;;;;;;;10.52;7.47;;;;;;;19.01;33.81;102502.19;5027297;28;20041;-72
2022/04/28 07:32:05;;;;;;;11.88;7.70;;;;;;;19.11;34.27;102505.97;5023561;28;20164;-71
2022/04/28 07:34:32;;;;;;;10.73;7.00;;;;;;;19.22;33.64;102511.53;5038497;28;20049;-71
2022/04/28 07:36:59;;;;;;;10.40;7.55;;;;;;;19.33;33.97;102511.59;5037323;28;20049;-71
2022/04/28 07:39:25;;;;;;;10.00;7.50;;;;;;;19.43;33.63;102513.63;5037412;28;20139;-71
2022/04/28 07:41:52;;;;;;;8.90;6.50;;;;;;;19.55;33.77;102518.19;5027330;28;20140;-70
2022/04/28 07:44:19;;;;;;;8.73;6.75;;;;;;;19.64;33.69;102514.72;5029772;28;20103;-72
2022/04/28 07:46:45;;;;;;;10.80;8.10;;;;;;;19.73;33.40;102523.16;5028493;28;20136;-72
2022/04/28 07:49:12;;;;;;;10.77;7.47;;;;;;;19.83;33.40;102522.44;5040089;28;20250;-72
2022/04/28 07:51:38;;;;;;;10.18;7.57;;;;;;;19.93;33.26;102526.22;5033318;28;20516;-71
2022/04/28 07:54:05;;;;;;;12.50;7.30;;;;;;;20.01;33.22;102524.56;5050002;28;20466;-74
2022/04/28 07:56:32;;;;;;;9.43;7.10;;;;;;;20.08;33.34;102525.84;5033215;28;20430;-71
2022/04/28 07:58:58;;;;;;;9.15;6.45;;;;;;;20.20;33.16;102528.59;5041164;28;20052;-73
2022/04/28 08:01:45;;;;;;;10.20;7.22;;;;;;;20.27;32.63;102529.84;5021380;28;20049;-74
2022/04/28 08:04:12;;;;;;;9.90;6.88;;;;;;;20.33;32.30;102533.03;5033789;28;20559;-71
2022/04/28 08:06:39;;;;;;;9.20;6.45;;;;;;;20.39;32.59;102531.66;5027063;28;20525;-72
2022/04/28 08:09:05;;;;;;;9.40;7.30;;;;;;;20.45;31.75;102533.91;5028905;28;20574;-71
2022/04/28 08:11:32;;;;;;;9.95;7.53;;;;;;;20.49;32.05;102529.91;5024491;28;20052;-74
2022/04/28 08:13:59;;;;;;;9.30;6.55;;;;;;;20.54;31.97;102533.16;5026018;28;20487;-75
2022/04/28 08:16:25;;;;;;;8.07;6.28;;;;;;;20.59;32.26;102521.75;5032942;28;20052;-74
2022/04/28 08:18:54;;;;;;;10.77;7.20;;;;;;;20.62;31.87;102527.00;5031694;28;20041;-74
2022/04/28 08:21:21;;;;;;;9.88;7.43;;;;;;;20.66;31.82;102537.69;5028130;28;20169;-74
2022/04/28 08:23:48;;;;;;;10.68;7.28;;;;;;;20.71;31.78;102542.81;5027236;28;20049;-71
2022/04/28 08:26:15;;;;;;;9.43;7.65;;;;;;;20.74;31.69;102542.56;5037363;28;20053;-72
2022/04/28 08:28:41;;;;;;;10.05;8.05;;;;;;;20.78;31.12;102544.06;5028065;28;20132;-72
2022/04/28 08:31:08;;;;;;;10.10;7.22;;;;;;;20.80;31.35;102540.16;5031102;28;20120;-72
2022/04/28 08:33:34;;;;;;;9.65;6.82;;;;;;;20.84;31.14;102549.94;5029051;28;20487;-72
2022/04/28 08:36:01;;;;;;;9.55;6.13;;;;;;;20.86;31.07;102556.22;5036812;28;20088;-72
2022/04/28 08:38:28;;;;;;;8.35;6.50;;;;;;;20.89;31.25;102547.69;5048439;28;20083;-71
2022/04/28 08:41:03;;;;;;;9.57;6.50;;;;;;;20.97;30.62;102549.78;5045949;28;20169;-72
2022/04/28 08:43:31;;;;;;;9.35;6.22;;;;;;;21.01;31.19;102554.03;5034208;28;20399;-71
2022/04/28 08:48:54;;;;;;;10.07;7.03;;;;;;;21.09;31.17;102551.50;5028878;28;20124;-72
2022/04/28 08:51:22;;;;;;;9.65;7.15;;;;;;;21.16;30.29;102557.41;5028147;28;20121;-72
2022/04/28 08:53:50;;;;;;;8.48;6.35;;;;;;;21.21;30.27;102558.81;5028534;28;20133;-72
2022/04/28 08:56:19;;;;;;;10.77;6.18;;;;;;;21.26;30.49;102563.94;5028627;28;20367;-72
2022/04/28 08:58:46;;;;;;;6.80;5.47;;;;;;;21.29;30.42;102549.88;5028210;28;20041;-71
2022/04/28 09:01:14;;;;;;;8.02;5.80;;;;;;;21.36;30.36;102558.50;5026826;28;20129;-71
2022/04/28 09:03:42;;;;;;;7.80;6.30;;;;;;;21.43;30.55;102565.25;5028847;28;20081;-71
2022/04/28 09:06:30;;;;;;;7.93;5.45;;;;;;;21.50;30.20;102563.72;5046495;28;20048;-71
2022/04/28 09:09:04;;;;;;;8.82;6.68;;;;;;;21.56;29.30;102565.97;5045116;28;20055;-72
2022/04/28 09:11:34;;;;;;;9.85;7.00;;;;;;;21.62;29.38;102562.66;5068024;28;20106;-71
2022/04/28 09:14:11;;;;;;;11.93;7.20;;;;;;;21.63;28.74;102564.44;5031518;28;20049;-71
2022/04/28 09:16:59;;;;;;;9.63;6.70;;;;;;;21.66;27.92;102555.00;5036492;28;20461;-71
2022/04/28 09:19:34;;;;;;;8.25;6.80;;;;;;;21.63;28.98;102558.91;5025002;28;20052;-71
2022/04/28 09:22:10;;;;;;;8.95;6.13;;;;;;;21.65;28.64;102567.94;5030790;28;20049;-71
2022/04/28 09:24:39;;;;;;;8.98;6.28;;;;;;;21.66;28.91;102557.75;5037456;28;20243;-71
2022/04/28 09:27:07;;;;;;;8.57;6.00;;;;;;;21.68;29.17;102561.25;5042073;28;20053;-71
2022/04/28 09:29:39;;;;;;;9.55;6.63;;;;;;;21.71;28.75;102558.22;5059722;28;20443;-72
2022/04/28 09:32:15;;;;;;;9.18;6.40;;;;;;;21.75;28.20;102556.94;5044128;28;20494;-71
2022/04/28 09:35:08;;;;;;;10.65;6.45;;;;;;;21.79;28.67;102558.44;5046486;28;20061;-72
2022/04/28 09:37:37;;;;;;;10.68;6.88;;;;;;;21.81;28.85;102554.53;5031085;28;20054;-71
2022/04/28 09:42:50;;;;;;;8.40;6.05;;;;;;;21.87;28.69;102548.47;5026385;28;20042;-72
2022/04/28 09:45:21;;;;;;;7.88;6.53;;;;;;;21.96;28.00;102552.31;5027985;28;20136;-72
2022/04/28 09:48:00;;;;;;;8.90;5.95;;;;;;;22.02;27.93;102551.78;5026798;28;20073;-71
2022/04/28 09:50:30;;;;;;;10.73;6.50;;;;;;;22.09;28.14;102547.47;5036724;28;20060;-72
2022/04/28 09:53:06;;;;;;;7.80;6.13;;;;;;;22.18;27.70;102546.66;5040553;28;20052;-73
2022/04/28 09:55:33;;;;;;;7.55;5.95;;;;;;;22.21;28.18;102540.84;5035929;28;20081;-72
2022/04/28 09:58:03;;;;;;;7.75;6.03;;;;;;;22.30;27.88;102550.22;5035495;28;20076;-71
2022/04/28 10:00:30;;;;;;;8.77;6.00;;;;;;;22.35;28.01;102551.53;5028183;28;20482;-71
2022/04/28 10:02:59;;;;;;;7.95;5.65;;;;;;;22.43;27.93;102545.31;5025764;28;20132;-72
2022/04/28 10:05:27;;;;;;;8.20;6.13;;;;;;;22.52;28.00;102552.78;5038370;28;20080;-71
2022/04/28 10:07:55;;;;;;;7.68;5.65;;;;;;;22.58;28.25;102537.50;5038104;28;20119;-71
2022/04/28 10:10:22;;;;;;;7.43;5.45;;;;;;;22.63;27.99;102537.97;5037819;28;20558;-72
2022/04/28 10:12:48;;;;;;;8.02;5.78;;;;;;;22.70;27.63;102540.06;5027598;28;20119;-71
2022/04/28 10:15:16;;;;;;;8.80;6.32;;;;;;;22.79;27.32;102545.78;5031483;28;20140;-72
2022/04/28 10:17:48;;;;;;;8.85;5.95;;;;;;;22.86;26.79;102536.78;5050713;28;20490;-71
2022/04/28 10:20:20;;;;;;;7.72;5.80;;;;;;;22.87;27.17;102535.75;5045552;28;20139;-71
2022/04/28 10:23:09;;;;;;;6.95;5.63;;;;;;;22.95;27.21;102537.81;5028527;28;20046;-71
2022/04/28 10:34:25;;;;;;;7.93;4.97;;;;;;;23.10;27.08;102539.16;5032692;28;19972;-71
2022/04/28 10:36:54;;;;;;;7.13;5.07;;;;;;;23.19;26.25;102541.06;5042510;28;20055;-72
2022/04/28 10:39:41;;;;;;;7.85;5.53;;;;;;;23.25;25.70;102542.38;5037311;28;20486;-72
2022/04/28 10:42:20;;;;;;;8.55;5.68;;;;;;;23.27;25.16;102545.88;5025256;28;20059;-72
2022/04/28 10:44:55;;;;;;;9.27;5.15;;;;;;;23.32;25.33;102538.00;5047673;28;20109;-72
2022/04/28 10:47:37;;;;;;;7.75;4.93;;;;;;;23.35;25.08;102538.59;5029236;28;20041;-71
2022/04/28 10:50:21;;;;;;;6.72;4.82;;;;;;;23.39;25.48;102545.59;5028462;28;20401;-71
2022/04/28 10:53:14;;;;;;;8.35;5.97;;;;;;;23.39;25.28;102542.81;5024599;28;20088;-70
2022/04/28 10:55:42;;;;;;;10.15;6.22;;;;;;;23.44;25.76;102532.19;5009116;28;20555;-71
2022/04/28 10:58:23;;;;;;;9.27;5.65;;;;;;;23.51;25.13;102532.50;5022044;28;20477;-70
2022/04/28 11:00:52;;;;;;;7.80;5.53;;;;;;;23.51;25.35;102533.38;5020932;28;20077;-69
2022/04/28 11:03:54;;;;;;;8.77;6.60;;;;;;;23.49;24.11;102529.88;5022551;28;20037;-71
2022/04/28 11:06:46;;;;;;;11.15;7.20;;;;;;;23.44;24.36;102525.78;5033883;28;20498;-70
2022/04/28 11:09:12;;;;;;;7.45;5.90;;;;;;;23.41;25.00;102529.69;5038297;28;20050;-69
2022/04/28 11:11:45;;;;;;;7.32;5.30;;;;;;;23.43;24.85;102532.34;5038458;28;20064;-70
2022/04/28 11:14:13;;;;;;;7.90;5.70;;;;;;;23.41;24.97;102529.69;5029047;28;20045;-71
2022/04/28 11:16:41;;;;;;;7.97;5.20;;;;;;;23.41;25.27;102534.38;5034441;28;20053;-70
2022/04/28 11:19:09;;;;;;;6.97;5.78;;;;;;;23.41;24.91;102531.59;5033553;28;20053;-70
2022/04/28 11:21:39;;;;;;;10.25;6.32;;;;;;;23.42;25.56;102523.13;5039864;28;20044;-70
2022/04/28 11:24:07;;;;;;;7.82;5.40;;;;;;;23.43;25.33;102530.44;5029337;28;20069;-70
2022/04/28 11:26:35;;;;;;;7.45;5.40;;;;;;;23.45;25.26;102525.63;5029102;28;20482;-70
2022/04/28 11:29:07;;;;;;;8.88;5.30;;;;;;;23.49;24.71;102526.22;5029083;28;20132;-70
2022/04/28 11:31:34;;;;;;;7.78;4.80;;;;;;;23.47;25.31;102520.78;5032278;28;20526;-71
2022/04/28 11:34:03;;;;;;;6.45;5.13;;;;;;;23.55;25.10;102519.25;5035513;28;20041;-72
2022/04/28 11:36:30;;;;;;;9.10;5.05;;;;;;;23.56;25.65;102524.63;5034421;28;20057;-69
2022/04/28 11:39:02;;;;;;;7.75;5.40;;;;;;;23.63;24.02;102520.25;5036400;28;20136;-72
2022/04/28 11:41:39;;;;;;;7.63;5.60;;;;;;;23.66;24.38;102519.06;5028398;28;20077;-71
2022/04/28 11:44:11;;;;;;;8.27;5.35;;;;;;;23.70;24.86;102524.19;5033524;28;20470;-70
2022/04/28 11:46:41;;;;;;;8.23;5.55;;;;;;;23.73;24.16;102518.34;5027809;28;20057;-70
2022/04/28 11:49:08;;;;;;;7.72;5.60;;;;;;;23.75;24.31;102502.44;5032472;28;20084;-70
2022/04/28 11:51:35;;;;;;;9.60;5.60;;;;;;;23.79;24.04;102511.34;5029620;28;20144;-70
2022/04/28 11:54:04;;;;;;;7.25;5.18;;;;;;;23.82;24.10;102513.78;5028241;28;20041;-68
2022/04/28 11:56:33;;;;;;;7.32;5.03;;;;;;;23.83;24.23;102510.00;5030294;28;20141;-68
2022/04/28 11:59:04;;;;;;;7.82;4.95;;;;;;;23.87;24.44;102514.25;5034106;28;20041;-71